sensor_id;sensor_type;location;lat;lon;timestamp;pressure;altitude;pressure_sealevel;temperature;humidity
64189;BME280;50493;50.970;10.082;2023-02-11T00:00:22;101092.91;;;1.82;61.09
64189;BME280;50493;50.970;10.082;2023-02-11T00:02:47;101083.09;;;1.74;61.52
64189;BME280;50493;50.970;10.082;2023-02-11T00:05:13;101079.03;;;1.59;61.99
64189;BME280;50493;50.970;10.082;2023-02-11T00:07:38;101080.66;;;1.57;62.92
64189;BME280;50493;50.970;10.082;2023-02-11T00:10:06;101080.91;;;1.42;62.95
64189;BME280;50493;50.970;10.082;2023-02-11T00:12:34;101086.66;;;1.36;63.15
64189;BME280;50493;50.970;10.082;2023-02-11T00:15:00;101083.16;;;1.34;63.18
64189;BME280;50493;50.970;10.082;2023-02-11T00:17:25;101083.94;;;1.53;62.32
64189;BME280;50493;50.970;10.082;2023-02-11T00:19:51;101067.78;;;1.16;64.70
64189;BME280;50493;50.970;10.082;2023-02-11T00:22:17;101062.16;;;1.05;64.79
64189;BME280;50493;50.970;10.082;2023-02-11T00:24:42;101056.47;;;1.13;63.93
64189;BME280;50493;50.970;10.082;2023-02-11T00:27:09;101046.69;;;1.25;63.88
64189;BME280;50493;50.970;10.082;2023-02-11T00:29:35;101034.50;;;1.21;64.67
64189;BME280;50493;50.970;10.082;2023-02-11T00:32:00;101031.47;;;1.31;62.79
64189;BME280;50493;50.970;10.082;2023-02-11T00:34:29;101036.44;;;1.07;64.27
64189;BME280;50493;50.970;10.082;2023-02-11T00:36:54;101026.84;;;1.22;63.42
64189;BME280;50493;50.970;10.082;2023-02-11T00:39:20;101024.34;;;1.45;62.95
64189;BME280;50493;50.970;10.082;2023-02-11T00:41:45;101015.28;;;1.55;62.61
64189;BME280;50493;50.970;10.082;2023-02-11T00:44:12;101011.69;;;1.51;62.36
64189;BME280;50493;50.970;10.082;2023-02-11T00:46:37;101007.06;;;1.43;62.42
64189;BME280;50493;50.970;10.082;2023-02-11T00:49:02;101009.31;;;1.35;63.53
64189;BME280;50493;50.970;10.082;2023-02-11T00:51:28;101000.44;;;1.28;63.54
64189;BME280;50493;50.970;10.082;2023-02-11T00:53:54;101008.75;;;1.01;64.39
64189;BME280;50493;50.970;10.082;2023-02-11T00:56:19;100995.59;;;1.15;64.24
64189;BME280;50493;50.970;10.082;2023-02-11T00:58:45;100987.84;;;1.15;64.57
64189;BME280;50493;50.970;10.082;2023-02-11T01:01:12;100981.84;;;1.14;63.63
64189;BME280;50493;50.970;10.082;2023-02-11T01:03:38;100980.56;;;1.26;63.68
64189;BME280;50493;50.970;10.082;2023-02-11T01:06:04;100986.31;;;1.18;63.92
64189;BME280;50493;50.970;10.082;2023-02-11T01:08:30;100981.78;;;1.34;63.09
64189;BME280;50493;50.970;10.082;2023-02-11T01:10:56;100978.19;;;1.51;63.37
64189;BME280;50493;50.970;10.082;2023-02-11T01:13:22;100989.81;;;1.20;64.14
64189;BME280;50493;50.970;10.082;2023-02-11T01:15:48;100985.06;;;1.51;62.61
64189;BME280;50493;50.970;10.082;2023-02-11T01:18:15;100991.63;;;1.23;64.75
64189;BME280;50493;50.970;10.082;2023-02-11T01:20:41;100987.63;;;1.51;63.33
64189;BME280;50493;50.970;10.082;2023-02-11T01:23:06;100977.72;;;1.60;62.29
64189;BME280;50493;50.970;10.082;2023-02-11T01:25:32;100986.53;;;1.25;64.54
64189;BME280;50493;50.970;10.082;2023-02-11T01:27:57;100975.69;;;1.53;62.90
64189;BME280;50493;50.970;10.082;2023-02-11T01:30:22;100975.41;;;1.68;62.68
64189;BME280;50493;50.970;10.082;2023-02-11T01:32:48;100972.06;;;1.92;62.13
64189;BME280;50493;50.970;10.082;2023-02-11T01:35:15;100969.75;;;1.77;62.98
64189;BME280;50493;50.970;10.082;2023-02-11T01:37:40;100962.72;;;1.51;64.06
64189;BME280;50493;50.970;10.082;2023-02-11T01:40:11;100960.34;;;1.56;63.79
64189;BME280;50493;50.970;10.082;2023-02-11T01:42:37;100962.34;;;1.63;63.09
64189;BME280;50493;50.970;10.082;2023-02-11T01:48:24;100966.38;;;1.78;63.73
64189;BME280;50493;50.970;10.082;2023-02-11T01:50:58;100975.03;;;1.80;62.79
64189;BME280;50493;50.970;10.082;2023-02-11T01:53:24;100983.03;;;1.44;64.37
64189;BME280;50493;50.970;10.082;2023-02-11T01:56:09;100973.88;;;1.94;62.78
64189;BME280;50493;50.970;10.082;2023-02-11T01:58:59;100979.53;;;1.85;63.06
64189;BME280;50493;50.970;10.082;2023-02-11T02:01:26;100982.75;;;2.01;62.97
64189;BME280;50493;50.970;10.082;2023-02-11T02:03:56;100990.28;;;2.42;61.47
64189;BME280;50493;50.970;10.082;2023-02-11T02:06:28;100993.03;;;2.46;61.20
64189;BME280;50493;50.970;10.082;2023-02-11T02:08:57;100993.22;;;2.51;61.05
64189;BME280;50493;50.970;10.082;2023-02-11T02:11:25;100998.25;;;2.48;60.99
64189;BME280;50493;50.970;10.082;2023-02-11T02:13:51;100990.00;;;2.34;61.71
64189;BME280;50493;50.970;10.082;2023-02-11T02:16:18;100972.69;;;2.09;62.96
64189;BME280;50493;50.970;10.082;2023-02-11T02:18:51;100968.41;;;1.86;63.05
64189;BME280;50493;50.970;10.082;2023-02-11T02:22:07;100963.94;;;2.03;63.27
64189;BME280;50493;50.970;10.082;2023-02-11T02:24:59;100968.13;;;2.24;62.74
64189;BME280;50493;50.970;10.082;2023-02-11T02:27:47;100958.16;;;1.88;63.84
64189;BME280;50493;50.970;10.082;2023-02-11T02:30:23;100952.53;;;1.98;63.16
64189;BME280;50493;50.970;10.082;2023-02-11T02:33:05;100953.94;;;2.13;62.44
64189;BME280;50493;50.970;10.082;2023-02-11T02:35:41;100944.09;;;2.25;62.28
64189;BME280;50493;50.970;10.082;2023-02-11T02:38:14;100947.16;;;2.15;63.03
64189;BME280;50493;50.970;10.082;2023-02-11T02:40:44;100942.28;;;2.00;63.29
64189;BME280;50493;50.970;10.082;2023-02-11T02:43:11;100936.56;;;1.84;64.42
64189;BME280;50493;50.970;10.082;2023-02-11T02:45:37;100921.91;;;2.06;63.99
64189;BME280;50493;50.970;10.082;2023-02-11T02:48:05;100915.13;;;2.10;63.51
64189;BME280;50493;50.970;10.082;2023-02-11T02:50:34;100911.25;;;2.21;62.97
64189;BME280;50493;50.970;10.082;2023-02-11T02:53:10;100905.88;;;1.69;64.88
64189;BME280;50493;50.970;10.082;2023-02-11T02:55:51;100899.66;;;1.87;65.16
64189;BME280;50493;50.970;10.082;2023-02-11T02:58:32;100895.75;;;1.97;65.00
64189;BME280;50493;50.970;10.082;2023-02-11T03:01:07;100898.13;;;1.47;66.92
64189;BME280;50493;50.970;10.082;2023-02-11T03:03:42;100896.34;;;1.67;65.91
64189;BME280;50493;50.970;10.082;2023-02-11T03:06:16;100889.41;;;1.66;65.66
64189;BME280;50493;50.970;10.082;2023-02-11T03:08:49;100894.03;;;1.75;65.97
64189;BME280;50493;50.970;10.082;2023-02-11T03:11:18;100903.66;;;1.79;65.50
64189;BME280;50493;50.970;10.082;2023-02-11T03:13:45;100910.38;;;2.20;63.97
64189;BME280;50493;50.970;10.082;2023-02-11T03:16:14;100905.88;;;2.15;64.22
64189;BME280;50493;50.970;10.082;2023-02-11T03:18:47;100899.72;;;2.35;63.51
64189;BME280;50493;50.970;10.082;2023-02-11T03:21:15;100901.22;;;2.53;62.97
64189;BME280;50493;50.970;10.082;2023-02-11T03:23:45;100905.56;;;2.54;63.40
64189;BME280;50493;50.970;10.082;2023-02-11T03:26:16;100899.63;;;2.32;63.95
64189;BME280;50493;50.970;10.082;2023-02-11T03:28:46;100902.09;;;2.29;63.78
64189;BME280;50493;50.970;10.082;2023-02-11T03:31:16;100911.59;;;2.54;63.07
64189;BME280;50493;50.970;10.082;2023-02-11T03:33:53;100911.03;;;2.87;61.71
64189;BME280;50493;50.970;10.082;2023-02-11T03:36:23;100906.72;;;2.88;61.56
64189;BME280;50493;50.970;10.082;2023-02-11T03:38:53;100908.25;;;2.83;62.47
64189;BME280;50493;50.970;10.082;2023-02-11T03:41:22;100895.19;;;3.02;61.31
64189;BME280;50493;50.970;10.082;2023-02-11T03:43:50;100889.34;;;3.08;61.39
64189;BME280;50493;50.970;10.082;2023-02-11T03:46:20;100899.19;;;2.68;62.20
64189;BME280;50493;50.970;10.082;2023-02-11T03:48:51;100891.75;;;3.03;61.59
64189;BME280;50493;50.970;10.082;2023-02-11T03:51:21;100875.31;;;3.27;60.24
64189;BME280;50493;50.970;10.082;2023-02-11T03:53:48;100869.41;;;3.31;61.03
64189;BME280;50493;50.970;10.082;2023-02-11T03:56:20;100863.81;;;3.45;59.96
64189;BME280;50493;50.970;10.082;2023-02-11T03:58:47;100850.66;;;3.38;59.74
64189;BME280;50493;50.970;10.082;2023-02-11T04:01:13;100855.13;;;3.15;60.91
64189;BME280;50493;50.970;10.082;2023-02-11T04:03:38;100870.22;;;3.03;61.96
64189;BME280;50493;50.970;10.082;2023-02-11T04:06:05;100870.91;;;2.73;63.02
64189;BME280;50493;50.970;10.082;2023-02-11T04:08:31;100861.22;;;2.66;63.72
64189;BME280;50493;50.970;10.082;2023-02-11T04:10:57;100850.38;;;2.52;64.34
64189;BME280;50493;50.970;10.082;2023-02-11T04:13:22;100853.09;;;2.55;63.79
64189;BME280;50493;50.970;10.082;2023-02-11T04:15:48;100850.22;;;2.71;63.14
64189;BME280;50493;50.970;10.082;2023-02-11T04:18:13;100856.59;;;2.83;62.33
64189;BME280;50493;50.970;10.082;2023-02-11T04:20:38;100859.47;;;2.65;62.40
64189;BME280;50493;50.970;10.082;2023-02-11T04:23:05;100862.94;;;2.67;63.17
64189;BME280;50493;50.970;10.082;2023-02-11T04:25:30;100866.75;;;2.77;62.56
64189;BME280;50493;50.970;10.082;2023-02-11T04:27:56;100861.59;;;2.77;63.58
64189;BME280;50493;50.970;10.082;2023-02-11T04:30:21;100858.72;;;2.69;64.00
64189;BME280;50493;50.970;10.082;2023-02-11T04:32:46;100863.03;;;2.68;64.08
64189;BME280;50493;50.970;10.082;2023-02-11T04:35:12;100852.13;;;3.03;62.80
64189;BME280;50493;50.970;10.082;2023-02-11T04:37:37;100857.00;;;2.95;62.83
64189;BME280;50493;50.970;10.082;2023-02-11T04:40:05;100859.41;;;2.89;63.09
64189;BME280;50493;50.970;10.082;2023-02-11T04:42:30;100861.47;;;2.99;62.28
64189;BME280;50493;50.970;10.082;2023-02-11T04:44:55;100860.22;;;2.88;62.37
64189;BME280;50493;50.970;10.082;2023-02-11T04:47:21;100858.59;;;2.90;62.68
64189;BME280;50493;50.970;10.082;2023-02-11T04:49:46;100862.44;;;3.01;61.91
64189;BME280;50493;50.970;10.082;2023-02-11T04:52:12;100868.78;;;2.87;62.61
64189;BME280;50493;50.970;10.082;2023-02-11T04:54:37;100857.78;;;2.93;63.17
64189;BME280;50493;50.970;10.082;2023-02-11T04:57:04;100856.09;;;3.19;62.04
64189;BME280;50493;50.970;10.082;2023-02-11T04:59:29;100859.22;;;3.09;62.50
64189;BME280;50493;50.970;10.082;2023-02-11T05:01:55;100863.44;;;2.81;62.34
64189;BME280;50493;50.970;10.082;2023-02-11T05:04:21;100861.44;;;3.25;61.95
64189;BME280;50493;50.970;10.082;2023-02-11T05:06:46;100855.31;;;3.49;60.83
64189;BME280;50493;50.970;10.082;2023-02-11T05:09:12;100864.44;;;3.37;61.46
64189;BME280;50493;50.970;10.082;2023-02-11T05:11:37;100869.03;;;3.19;61.96
64189;BME280;50493;50.970;10.082;2023-02-11T05:14:05;100872.47;;;3.19;61.43
64189;BME280;50493;50.970;10.082;2023-02-11T05:16:31;100880.66;;;3.06;62.41
64189;BME280;50493;50.970;10.082;2023-02-11T05:18:57;100881.41;;;3.03;62.49
64189;BME280;50493;50.970;10.082;2023-02-11T05:21:22;100886.00;;;3.38;61.43
64189;BME280;50493;50.970;10.082;2023-02-11T05:23:48;100872.34;;;3.15;62.47
64189;BME280;50493;50.970;10.082;2023-02-11T05:26:14;100874.97;;;3.44;61.11
64189;BME280;50493;50.970;10.082;2023-02-11T05:28:40;100869.03;;;3.19;62.02
64189;BME280;50493;50.970;10.082;2023-02-11T05:31:07;100870.06;;;3.24;62.29
64189;BME280;50493;50.970;10.082;2023-02-11T05:33:32;100884.34;;;3.14;61.56
64189;BME280;50493;50.970;10.082;2023-02-11T05:35:58;100885.47;;;3.48;61.37
64189;BME280;50493;50.970;10.082;2023-02-11T05:38:23;100878.13;;;3.62;60.36
64189;BME280;50493;50.970;10.082;2023-02-11T05:40:49;100881.22;;;3.79;60.17
64189;BME280;50493;50.970;10.082;2023-02-11T05:43:14;100880.84;;;3.67;60.59
64189;BME280;50493;50.970;10.082;2023-02-11T05:45:39;100886.00;;;3.67;59.53
64189;BME280;50493;50.970;10.082;2023-02-11T05:48:06;100879.16;;;3.67;60.66
64189;BME280;50493;50.970;10.082;2023-02-11T05:50:31;100881.50;;;3.60;60.07
64189;BME280;50493;50.970;10.082;2023-02-11T05:52:56;100887.88;;;3.16;61.65
64189;BME280;50493;50.970;10.082;2023-02-11T05:55:22;100877.38;;;3.37;62.10
64189;BME280;50493;50.970;10.082;2023-02-11T05:57:47;100875.47;;;3.59;60.89
64189;BME280;50493;50.970;10.082;2023-02-11T06:00:13;100864.25;;;3.31;61.14
64189;BME280;50493;50.970;10.082;2023-02-11T06:02:39;100866.25;;;3.40;61.39
64189;BME280;50493;50.970;10.082;2023-02-11T06:05:07;100870.34;;;3.33;61.58
64189;BME280;50493;50.970;10.082;2023-02-11T06:07:32;100864.16;;;3.28;62.18
64189;BME280;50493;50.970;10.082;2023-02-11T06:09:57;100857.25;;;3.29;62.05
64189;BME280;50493;50.970;10.082;2023-02-11T06:12:23;100849.00;;;3.12;62.20
64189;BME280;50493;50.970;10.082;2023-02-11T06:14:49;100856.78;;;3.13;62.74
64189;BME280;50493;50.970;10.082;2023-02-11T06:17:14;100855.28;;;3.20;62.53
64189;BME280;50493;50.970;10.082;2023-02-11T06:19:39;100865.69;;;2.97;62.55
64189;BME280;50493;50.970;10.082;2023-02-11T06:22:06;100856.78;;;3.40;61.96
64189;BME280;50493;50.970;10.082;2023-02-11T06:24:31;100856.91;;;2.92;63.50
64189;BME280;50493;50.970;10.082;2023-02-11T06:26:57;100868.84;;;2.88;63.43
64189;BME280;50493;50.970;10.082;2023-02-11T06:29:22;100877.59;;;2.92;63.68
64189;BME280;50493;50.970;10.082;2023-02-11T06:31:47;100877.28;;;3.09;63.21
64189;BME280;50493;50.970;10.082;2023-02-11T06:34:13;100882.13;;;3.25;62.41
64189;BME280;50493;50.970;10.082;2023-02-11T06:36:38;100873.13;;;2.88;63.66
64189;BME280;50493;50.970;10.082;2023-02-11T06:39:06;100867.22;;;3.16;62.62
64189;BME280;50493;50.970;10.082;2023-02-11T06:41:32;100868.94;;;3.16;62.62
64189;BME280;50493;50.970;10.082;2023-02-11T06:43:57;100862.13;;;3.19;62.34
64189;BME280;50493;50.970;10.082;2023-02-11T06:46:23;100860.41;;;3.18;62.79
64189;BME280;50493;50.970;10.082;2023-02-11T06:48:48;100867.38;;;3.48;62.06
64189;BME280;50493;50.970;10.082;2023-02-11T06:51:14;100863.50;;;3.35;62.03
64189;BME280;50493;50.970;10.082;2023-02-11T06:53:41;100875.91;;;3.46;61.73
64189;BME280;50493;50.970;10.082;2023-02-11T06:56:10;100883.09;;;3.56;61.40
64189;BME280;50493;50.970;10.082;2023-02-11T06:58:36;100881.56;;;3.34;62.34
64189;BME280;50493;50.970;10.082;2023-02-11T07:01:03;100883.94;;;3.55;61.52
64189;BME280;50493;50.970;10.082;2023-02-11T07:03:30;100881.38;;;3.55;61.82
64189;BME280;50493;50.970;10.082;2023-02-11T07:05:56;100881.16;;;3.78;60.88
64189;BME280;50493;50.970;10.082;2023-02-11T07:08:21;100870.47;;;3.94;59.98
64189;BME280;50493;50.970;10.082;2023-02-11T07:10:46;100872.53;;;4.07;59.71
64189;BME280;50493;50.970;10.082;2023-02-11T07:13:13;100871.13;;;3.88;59.54
64189;BME280;50493;50.970;10.082;2023-02-11T07:15:38;100868.50;;;3.87;60.39
64189;BME280;50493;50.970;10.082;2023-02-11T07:18:04;100875.94;;;3.76;60.38
64189;BME280;50493;50.970;10.082;2023-02-11T07:20:29;100872.78;;;3.85;60.38
64189;BME280;50493;50.970;10.082;2023-02-11T07:22:54;100881.44;;;3.58;61.58
64189;BME280;50493;50.970;10.082;2023-02-11T07:25:20;100884.13;;;3.90;60.64
64189;BME280;50493;50.970;10.082;2023-02-11T07:27:45;100880.63;;;3.88;59.34
64189;BME280;50493;50.970;10.082;2023-02-11T07:30:13;100895.28;;;3.60;62.00
64189;BME280;50493;50.970;10.082;2023-02-11T07:32:38;100886.22;;;4.03;60.07
64189;BME280;50493;50.970;10.082;2023-02-11T07:35:04;100890.03;;;4.15;59.83
64189;BME280;50493;50.970;10.082;2023-02-11T07:37:32;100890.28;;;4.24;59.10
64189;BME280;50493;50.970;10.082;2023-02-11T07:39:57;100895.47;;;4.24;59.50
64189;BME280;50493;50.970;10.082;2023-02-11T07:42:22;100903.16;;;3.92;60.63
64189;BME280;50493;50.970;10.082;2023-02-11T07:44:48;100909.41;;;4.29;58.98
64189;BME280;50493;50.970;10.082;2023-02-11T07:47:14;100898.94;;;4.24;59.53
64189;BME280;50493;50.970;10.082;2023-02-11T07:49:40;100904.72;;;4.16;59.41
64189;BME280;50493;50.970;10.082;2023-02-11T07:52:05;100907.69;;;3.99;60.28
64189;BME280;50493;50.970;10.082;2023-02-11T07:54:30;100907.00;;;4.05;59.80
64189;BME280;50493;50.970;10.082;2023-02-11T07:56:56;100897.31;;;4.28;59.04
64189;BME280;50493;50.970;10.082;2023-02-11T07:59:21;100910.72;;;4.15;59.65
64189;BME280;50493;50.970;10.082;2023-02-11T08:01:48;100914.06;;;4.11;59.73
64189;BME280;50493;50.970;10.082;2023-02-11T08:04:16;100910.38;;;4.33;58.95
64189;BME280;50493;50.970;10.082;2023-02-11T08:06:42;100906.34;;;4.12;58.94
64189;BME280;50493;50.970;10.082;2023-02-11T08:09:09;100909.63;;;4.37;59.04
64189;BME280;50493;50.970;10.082;2023-02-11T08:11:35;100908.88;;;4.11;59.82
64189;BME280;50493;50.970;10.082;2023-02-11T08:14:00;100917.03;;;4.24;59.68
64189;BME280;50493;50.970;10.082;2023-02-11T08:16:28;100917.84;;;4.22;59.77
64189;BME280;50493;50.970;10.082;2023-02-11T08:18:55;100919.50;;;4.20;59.96
64189;BME280;50493;50.970;10.082;2023-02-11T08:21:23;100918.09;;;4.31;59.92
64189;BME280;50493;50.970;10.082;2023-02-11T08:23:49;100927.75;;;4.06;60.79
64189;BME280;50493;50.970;10.082;2023-02-11T08:26:16;100917.09;;;4.26;59.10
64189;BME280;50493;50.970;10.082;2023-02-11T08:28:44;100929.59;;;4.41;60.09
64189;BME280;50493;50.970;10.082;2023-02-11T08:31:11;100926.06;;;4.37;59.99
64189;BME280;50493;50.970;10.082;2023-02-11T08:33:36;100941.16;;;4.23;60.87
64189;BME280;50493;50.970;10.082;2023-02-11T08:36:07;100938.88;;;4.04;61.94
64189;BME280;50493;50.970;10.082;2023-02-11T08:38:34;100933.06;;;4.41;61.11
64189;BME280;50493;50.970;10.082;2023-02-11T08:41:00;100929.63;;;4.42;61.40
64189;BME280;50493;50.970;10.082;2023-02-11T08:43:25;100929.25;;;4.59;61.27
64189;BME280;50493;50.970;10.082;2023-02-11T08:45:50;100929.59;;;4.41;61.70
64189;BME280;50493;50.970;10.082;2023-02-11T08:48:16;100920.63;;;4.28;62.35
64189;BME280;50493;50.970;10.082;2023-02-11T08:50:41;100929.78;;;4.18;62.79
64189;BME280;50493;50.970;10.082;2023-02-11T08:53:07;100933.09;;;3.84;63.91
64189;BME280;50493;50.970;10.082;2023-02-11T08:55:33;100930.81;;;3.93;63.15
64189;BME280;50493;50.970;10.082;2023-02-11T08:57:59;100929.03;;;3.92;64.24
64189;BME280;50493;50.970;10.082;2023-02-11T09:00:24;100929.59;;;4.41;62.35
64189;BME280;50493;50.970;10.082;2023-02-11T09:02:50;100928.53;;;4.34;61.91
64189;BME280;50493;50.970;10.082;2023-02-11T09:05:15;100922.88;;;4.48;61.33
64189;BME280;50493;50.970;10.082;2023-02-11T09:07:40;100928.50;;;4.33;62.14
64189;BME280;50493;50.970;10.082;2023-02-11T09:10:06;100922.53;;;4.35;62.32
64189;BME280;50493;50.970;10.082;2023-02-11T09:12:33;100926.13;;;4.40;61.94
64189;BME280;50493;50.970;10.082;2023-02-11T09:14:58;100920.78;;;4.66;60.84
64189;BME280;50493;50.970;10.082;2023-02-11T09:17:24;100924.94;;;4.29;61.52
64189;BME280;50493;50.970;10.082;2023-02-11T09:19:49;100935.81;;;4.48;61.66
64189;BME280;50493;50.970;10.082;2023-02-11T09:22:14;100937.91;;;4.00;63.60
64189;BME280;50493;50.970;10.082;2023-02-11T09:24:40;100934.66;;;4.36;61.90
64189;BME280;50493;50.970;10.082;2023-02-11T09:27:05;100931.41;;;4.75;60.54
64189;BME280;50493;50.970;10.082;2023-02-11T09:29:32;100929.41;;;4.65;60.71
64189;BME280;50493;50.970;10.082;2023-02-11T09:31:57;100928.56;;;4.66;60.89
64189;BME280;50493;50.970;10.082;2023-02-11T09:34:22;100930.97;;;4.28;62.64
64189;BME280;50493;50.970;10.082;2023-02-11T09:36:48;100935.03;;;4.20;62.77
64189;BME280;50493;50.970;10.082;2023-02-11T09:39:15;100931.22;;;4.69;61.28
64189;BME280;50493;50.970;10.082;2023-02-11T09:41:53;100936.94;;;4.57;61.55
64189;BME280;50493;50.970;10.082;2023-02-11T09:44:25;100934.50;;;4.62;61.48
64189;BME280;50493;50.970;10.082;2023-02-11T09:46:55;100944.19;;;4.69;61.31
64189;BME280;50493;50.970;10.082;2023-02-11T09:49:24;100939.97;;;4.42;62.67
64189;BME280;50493;50.970;10.082;2023-02-11T09:51:58;100933.78;;;4.68;61.73
64189;BME280;50493;50.970;10.082;2023-02-11T09:54:28;100944.09;;;4.66;60.72
64189;BME280;50493;50.970;10.082;2023-02-11T09:56:55;100941.09;;;5.16;60.24
64189;BME280;50493;50.970;10.082;2023-02-11T09:59:21;100944.88;;;5.29;59.69
64189;BME280;50493;50.970;10.082;2023-02-11T10:01:50;100957.41;;;5.46;57.89
64189;BME280;50493;50.970;10.082;2023-02-11T10:04:29;100942.28;;;5.64;58.24
64189;BME280;50493;50.970;10.082;2023-02-11T10:07:06;100952.72;;;4.97;60.21
64189;BME280;50493;50.970;10.082;2023-02-11T10:09:56;100955.09;;;5.23;60.08
64189;BME280;50493;50.970;10.082;2023-02-11T10:12:34;100957.97;;;5.34;59.38
64189;BME280;50493;50.970;10.082;2023-02-11T10:15:14;100967.38;;;5.30;57.59
64189;BME280;50493;50.970;10.082;2023-02-11T10:17:51;100965.25;;;5.47;58.67
64189;BME280;50493;50.970;10.082;2023-02-11T10:20:30;100961.72;;;4.48;63.23
64189;BME280;50493;50.970;10.082;2023-02-11T10:22:58;100974.28;;;4.96;61.38
64189;BME280;50493;50.970;10.082;2023-02-11T10:25:26;100972.59;;;4.98;60.99
64189;BME280;50493;50.970;10.082;2023-02-11T10:27:54;100966.69;;;5.37;61.13
64189;BME280;50493;50.970;10.082;2023-02-11T10:30:27;100969.63;;;5.50;59.72
64189;BME280;50493;50.970;10.082;2023-02-11T10:32:56;100958.78;;;5.66;59.45
64189;BME280;50493;50.970;10.082;2023-02-11T10:35:25;100956.91;;;5.61;58.71
64189;BME280;50493;50.970;10.082;2023-02-11T10:37:52;100955.50;;;5.75;58.63
64189;BME280;50493;50.970;10.082;2023-02-11T10:40:20;100961.38;;;5.66;58.98
64189;BME280;50493;50.970;10.082;2023-02-11T10:42:48;100969.13;;;5.65;59.18
64189;BME280;50493;50.970;10.082;2023-02-11T10:45:17;100969.00;;;5.98;58.34
64189;BME280;50493;50.970;10.082;2023-02-11T10:47:44;100966.13;;;5.86;58.92
64189;BME280;50493;50.970;10.082;2023-02-11T10:50:22;100954.34;;;5.62;59.50
64189;BME280;50493;50.970;10.082;2023-02-11T10:52:49;100956.66;;;5.86;58.62
64189;BME280;50493;50.970;10.082;2023-02-11T10:55:17;100951.16;;;6.12;58.33
64189;BME280;50493;50.970;10.082;2023-02-11T10:57:50;100948.03;;;5.89;59.05
64189;BME280;50493;50.970;10.082;2023-02-11T11:00:28;100948.59;;;6.14;57.95
64189;BME280;50493;50.970;10.082;2023-02-11T11:02:57;100953.69;;;6.10;57.26
64189;BME280;50493;50.970;10.082;2023-02-11T11:05:28;100953.31;;;5.92;58.66
64189;BME280;50493;50.970;10.082;2023-02-11T11:07:57;100949.84;;;6.33;57.20
64189;BME280;50493;50.970;10.082;2023-02-11T11:10:36;100941.59;;;6.09;58.08
64189;BME280;50493;50.970;10.082;2023-02-11T11:13:01;100943.66;;;6.69;56.95
64189;BME280;50493;50.970;10.082;2023-02-11T11:15:28;100945.00;;;6.07;56.63
64189;BME280;50493;50.970;10.082;2023-02-11T11:18:13;100942.72;;;5.83;59.22
64189;BME280;50493;50.970;10.082;2023-02-11T11:20:43;100939.81;;;5.69;58.69
64189;BME280;50493;50.970;10.082;2023-02-11T11:23:21;100943.47;;;6.18;58.87
64189;BME280;50493;50.970;10.082;2023-02-11T11:25:59;100944.50;;;6.25;58.41
64189;BME280;50493;50.970;10.082;2023-02-11T11:28:27;100940.59;;;6.04;59.56
64189;BME280;50493;50.970;10.082;2023-02-11T11:30:54;100935.22;;;5.97;58.81
64189;BME280;50493;50.970;10.082;2023-02-11T11:33:23;100937.31;;;5.73;60.22
64189;BME280;50493;50.970;10.082;2023-02-11T11:35:58;100937.41;;;6.16;59.23
64189;BME280;50493;50.970;10.082;2023-02-11T11:38:26;100941.66;;;5.04;62.42
64189;BME280;50493;50.970;10.082;2023-02-11T11:41:13;100948.00;;;5.49;61.77
64189;BME280;50493;50.970;10.082;2023-02-11T11:43:39;100941.91;;;5.85;60.15
64189;BME280;50493;50.970;10.082;2023-02-11T11:46:04;100947.28;;;5.93;59.93
64189;BME280;50493;50.970;10.082;2023-02-11T11:48:35;100939.63;;;5.61;60.74
64189;BME280;50493;50.970;10.082;2023-02-11T11:51:04;100935.16;;;5.54;61.44
64189;BME280;50493;50.970;10.082;2023-02-11T11:53:36;100941.94;;;5.87;60.76
64189;BME280;50493;50.970;10.082;2023-02-11T11:56:04;100942.78;;;5.86;60.96
64189;BME280;50493;50.970;10.082;2023-02-11T11:58:33;100931.66;;;5.91;61.22
64189;BME280;50493;50.970;10.082;2023-02-11T12:01:07;100935.56;;;5.72;61.98
64189;BME280;50493;50.970;10.082;2023-02-11T12:03:58;100947.16;;;5.17;63.56
64189;BME280;50493;50.970;10.082;2023-02-11T12:06:30;100935.81;;;5.85;61.12
64189;BME280;50493;50.970;10.082;2023-02-11T12:09:08;100940.16;;;5.48;62.42
64189;BME280;50493;50.970;10.082;2023-02-11T12:11:57;100935.16;;;5.54;62.68
64189;BME280;50493;50.970;10.082;2023-02-11T12:14:33;100936.94;;;5.95;60.44
64189;BME280;50493;50.970;10.082;2023-02-11T12:17:05;100932.22;;;6.16;59.83
64189;BME280;50493;50.970;10.082;2023-02-11T12:19:46;100928.44;;;6.03;61.03
64189;BME280;50493;50.970;10.082;2023-02-11T12:22:25;100929.06;;;6.33;58.84
64189;BME280;50493;50.970;10.082;2023-02-11T12:25:15;100937.41;;;6.60;58.87
64189;BME280;50493;50.970;10.082;2023-02-11T12:27:49;100929.66;;;7.09;56.91
64189;BME280;50493;50.970;10.082;2023-02-11T12:30:37;100932.31;;;7.14;57.01
64189;BME280;50493;50.970;10.082;2023-02-11T12:33:11;100922.00;;;6.70;58.69
64189;BME280;50493;50.970;10.082;2023-02-11T12:35:47;100926.56;;;6.82;58.75
64189;BME280;50493;50.970;10.082;2023-02-11T12:38:31;100927.28;;;7.23;56.53
64189;BME280;50493;50.970;10.082;2023-02-11T12:41:12;100922.50;;;6.96;57.05
64189;BME280;50493;50.970;10.082;2023-02-11T12:43:43;100914.88;;;7.07;57.19
64189;BME280;50493;50.970;10.082;2023-02-11T12:46:22;100922.69;;;7.07;56.70
64189;BME280;50493;50.970;10.082;2023-02-11T12:49:09;100920.75;;;6.51;58.64
64189;BME280;50493;50.970;10.082;2023-02-11T12:51:48;100914.38;;;6.35;59.72
64189;BME280;50493;50.970;10.082;2023-02-11T12:54:22;100920.56;;;6.86;59.25
64189;BME280;50493;50.970;10.082;2023-02-11T12:56:53;100918.97;;;6.94;57.96
64189;BME280;50493;50.970;10.082;2023-02-11T12:59:32;100915.28;;;6.80;58.73
64189;BME280;50493;50.970;10.082;2023-02-11T13:02:03;100921.16;;;7.20;56.82